createdAt,value
2023-01-05T00:00:31.018Z,10.69
2023-01-05T00:05:32.720Z,10.71
2023-01-05T00:10:55.057Z,10.73
2023-01-05T00:16:18.761Z,10.85
2023-01-05T00:21:38.962Z,10.94
2023-01-05T00:26:40.670Z,11.00
2023-01-05T00:31:43.726Z,11.05
2023-01-05T00:36:45.435Z,11.09
2023-01-05T00:41:47.133Z,11.09
2023-01-05T00:46:50.109Z,11.12
2023-01-05T00:51:51.748Z,11.08
2023-01-05T00:56:53.411Z,11.01
2023-01-05T01:01:56.633Z,11.08
2023-01-05T01:06:58.469Z,11.07
2023-01-05T01:12:00.200Z,11.10
2023-01-05T01:17:03.325Z,11.22
2023-01-05T01:22:05.021Z,11.22
2023-01-05T01:27:08.001Z,11.24
2023-01-05T01:32:11.086Z,11.18
2023-01-05T01:37:12.885Z,11.15
2023-01-05T01:42:20.851Z,11.22
2023-01-05T01:47:35.338Z,11.25
2023-01-05T01:52:37.155Z,11.24
2023-01-05T01:57:39.150Z,11.25
2023-01-05T02:02:42.412Z,11.23
2023-01-05T02:07:45.280Z,11.28
2023-01-05T02:12:58.851Z,11.22
2023-01-05T02:18:08.873Z,11.25
2023-01-05T02:23:38.798Z,11.26
2023-01-05T02:28:48.543Z,11.11
2023-01-05T02:34:00.253Z,11.14
2023-01-05T02:39:04.923Z,11.07
2023-01-05T02:44:07.392Z,10.96
2023-01-05T02:49:10.563Z,10.97
2023-01-05T02:54:13.809Z,10.96
2023-01-05T02:59:17.129Z,10.99
2023-01-05T03:04:21.301Z,10.88
2023-01-05T03:09:26.191Z,10.95
2023-01-05T03:14:32.326Z,11.04
2023-01-05T03:19:36.277Z,10.89
2023-01-05T03:24:56.644Z,10.96
2023-01-05T03:30:17.800Z,10.93
2023-01-05T03:35:33.855Z,10.93
2023-01-05T03:40:38.122Z,10.94
2023-01-05T03:45:41.143Z,10.98
2023-01-05T03:50:48.000Z,10.97
2023-01-05T03:55:51.402Z,10.97
2023-01-05T04:00:53.520Z,10.92
2023-01-05T04:05:59.005Z,10.83
2023-01-05T04:11:13.773Z,10.73
2023-01-05T04:16:16.037Z,10.69
2023-01-05T04:21:19.637Z,10.66
2023-01-05T04:26:23.453Z,10.65
2023-01-05T04:31:26.260Z,10.65
2023-01-05T04:36:31.944Z,10.71
2023-01-05T04:41:34.091Z,10.75
2023-01-05T04:46:36.001Z,10.78
2023-01-05T04:51:40.111Z,10.68
2023-01-05T04:56:43.675Z,10.72
2023-01-05T05:01:45.633Z,10.77
2023-01-05T05:06:50.969Z,10.75
2023-01-05T05:11:54.675Z,10.80
2023-01-05T05:16:58.193Z,10.83
2023-01-05T05:22:01.396Z,10.67
2023-01-05T05:27:03.051Z,10.66
2023-01-05T05:32:05.085Z,10.54
2023-01-05T05:37:08.528Z,10.61
2023-01-05T05:42:10.256Z,10.46
2023-01-05T05:47:11.959Z,10.49
2023-01-05T05:52:14.943Z,10.46
2023-01-05T05:57:17.518Z,10.49
2023-01-05T06:02:19.588Z,10.50
2023-01-05T06:07:22.696Z,10.47
2023-01-05T06:12:24.395Z,10.54
2023-01-05T06:17:26.198Z,10.54
2023-01-05T06:22:29.223Z,10.50
2023-01-05T06:27:31.038Z,10.55
2023-01-05T06:32:32.759Z,10.59
2023-01-05T06:37:35.833Z,10.58
2023-01-05T06:42:37.518Z,10.55
2023-01-05T06:47:39.215Z,10.50
2023-01-05T06:52:42.198Z,10.53
2023-01-05T06:57:43.926Z,10.48
2023-01-05T07:02:45.666Z,10.47
2023-01-05T07:07:48.673Z,10.53
2023-01-05T07:12:50.359Z,10.51
2023-01-05T07:17:52.037Z,10.38
2023-01-05T07:22:55.062Z,10.32
2023-01-05T07:27:56.883Z,10.73
2023-01-05T07:32:58.767Z,10.41
2023-01-05T07:38:01.801Z,10.39
2023-01-05T07:43:03.580Z,10.38
2023-01-05T07:48:05.718Z,10.38
2023-01-05T07:53:08.808Z,10.69
2023-01-05T07:58:10.483Z,12.12
2023-01-05T08:03:12.112Z,11.82
2023-01-05T08:08:20.597Z,11.84
2023-01-05T08:13:44.557Z,11.08
2023-01-05T08:18:46.276Z,11.08
2023-01-05T08:23:50.544Z,11.12
2023-01-05T08:28:52.329Z,10.88
2023-01-05T08:33:55.325Z,10.69
2023-01-05T08:39:01.075Z,10.76
2023-01-05T08:44:03.694Z,10.80
2023-01-05T08:49:06.524Z,10.77
2023-01-05T08:54:09.572Z,10.72
2023-01-05T08:59:12.024Z,10.72
2023-01-05T09:04:13.690Z,10.69
2023-01-05T09:09:16.706Z,10.72
2023-01-05T09:14:18.813Z,10.68
2023-01-05T09:19:20.516Z,10.69
2023-01-05T09:24:23.786Z,10.61
2023-01-05T09:29:25.567Z,10.85
2023-01-05T09:34:27.439Z,10.97
2023-01-05T09:39:30.584Z,10.90
2023-01-05T09:44:33.867Z,10.85
2023-01-05T09:49:35.576Z,10.83
2023-01-05T09:54:39.061Z,10.74
2023-01-05T09:59:42.158Z,10.73
2023-01-05T10:04:43.912Z,10.53
2023-01-05T10:09:47.131Z,10.62
2023-01-05T10:14:50.431Z,10.72
2023-01-05T10:19:52.174Z,10.67
2023-01-05T10:24:57.467Z,11.15
2023-01-05T10:30:03.109Z,11.48
2023-01-05T10:35:09.280Z,11.37
2023-01-05T10:40:28.504Z,11.12
2023-01-05T10:45:30.419Z,11.29
2023-01-05T10:50:36.050Z,11.33
2023-01-05T10:55:51.473Z,11.23
2023-01-05T11:00:54.755Z,11.39
2023-01-05T11:05:56.472Z,11.47
2023-01-05T11:11:00.050Z,11.31
2023-01-05T11:16:06.839Z,11.35
2023-01-05T11:21:11.136Z,11.19
2023-01-05T11:26:32.644Z,11.02
2023-01-05T11:31:36.215Z,10.90
2023-01-05T11:36:38.172Z,10.89
2023-01-05T11:41:42.234Z,10.96
2023-01-05T11:46:43.963Z,11.03
2023-01-05T11:51:45.716Z,11.00
2023-01-05T11:56:48.795Z,10.83
2023-01-05T12:02:00.191Z,10.75
2023-01-05T12:07:07.631Z,10.91
2023-01-05T12:12:19.711Z,10.82
2023-01-05T12:17:24.532Z,10.66
2023-01-05T12:22:43.108Z,10.54
2023-01-05T12:28:04.920Z,10.44
2023-01-05T12:38:55.383Z,10.51
2023-01-05T12:44:05.451Z,10.51
2023-01-05T12:49:08.846Z,10.46
2023-01-05T12:54:16.678Z,10.54
2023-01-05T12:59:22.762Z,10.82
2023-01-05T13:04:41.306Z,10.78
2023-01-05T13:09:43.405Z,10.57
2023-01-05T13:14:55.287Z,10.55
2023-01-05T13:20:01.891Z,10.36
2023-01-05T13:25:04.707Z,10.49
2023-01-05T13:30:09.088Z,10.70
2023-01-05T13:35:34.623Z,10.61
2023-01-05T13:40:52.743Z,10.72
2023-01-05T13:46:26.960Z,10.64
2023-01-05T13:51:35.872Z,10.35
2023-01-05T13:56:38.092Z,9.97
2023-01-05T14:01:41.970Z,9.83
2023-01-05T14:06:45.333Z,9.76
2023-01-05T14:12:20.773Z,9.64
2023-01-05T14:17:55.407Z,9.54
2023-01-05T14:22:57.354Z,9.46
2023-01-05T14:28:40.710Z,9.42
2023-01-05T14:33:48.111Z,9.31
2023-01-05T14:38:49.959Z,9.24
2023-01-05T14:43:55.444Z,9.21
2023-01-05T14:49:01.920Z,9.14
2023-01-05T14:54:04.767Z,9.11
2023-01-05T14:59:14.927Z,9.03
2023-01-05T15:04:19.935Z,8.99
2023-01-05T15:09:30.008Z,8.94
2023-01-05T15:14:48.849Z,8.85
2023-01-05T15:20:08.315Z,8.76
2023-01-05T15:25:49.268Z,8.78
2023-01-05T15:31:13.455Z,8.70
2023-01-05T15:36:21.955Z,8.62
2023-01-05T15:41:23.687Z,8.47
2023-01-05T15:46:32.026Z,8.46
2023-01-05T15:51:35.038Z,8.41
2023-01-05T15:56:40.667Z,8.37
2023-01-05T16:01:42.449Z,8.31
2023-01-05T16:06:45.864Z,8.27
2023-01-05T16:11:47.563Z,8.22
2023-01-05T16:16:53.315Z,8.24
2023-01-05T16:21:59.803Z,8.33
2023-01-05T16:27:02.597Z,8.31
2023-01-05T16:32:04.923Z,8.35
2023-01-05T16:37:16.191Z,8.31
2023-01-05T16:42:37.958Z,8.31
2023-01-05T16:47:41.054Z,8.26
2023-01-05T16:52:48.368Z,8.40
2023-01-05T16:57:50.182Z,8.24
2023-01-05T17:02:52.739Z,8.25
2023-01-05T17:08:02.277Z,8.32
2023-01-05T17:13:05.684Z,8.51
2023-01-05T17:18:15.081Z,8.54
2023-01-05T17:23:21.220Z,8.81
2023-01-05T17:28:24.362Z,9.05
2023-01-05T17:33:26.044Z,9.09
2023-01-05T17:38:29.114Z,9.17
2023-01-05T17:43:33.652Z,9.27
2023-01-05T17:48:35.445Z,9.26
2023-01-05T17:53:38.539Z,9.30
2023-01-05T17:58:40.506Z,9.28
2023-01-05T18:03:42.198Z,9.23
2023-01-05T18:08:45.323Z,9.21
2023-01-05T18:13:47.096Z,9.16
2023-01-05T18:18:48.783Z,9.22
2023-01-05T18:23:51.994Z,9.06
2023-01-05T18:28:54.224Z,9.07
2023-01-05T18:33:55.869Z,9.14
2023-01-05T18:38:58.921Z,9.26
2023-01-05T18:44:00.648Z,9.36
2023-01-05T18:49:02.721Z,9.28
2023-01-05T18:54:05.867Z,9.29
2023-01-05T18:59:07.573Z,9.33
2023-01-05T19:04:09.753Z,9.40
2023-01-05T19:09:13.601Z,9.42
2023-01-05T19:14:15.537Z,9.46
2023-01-05T19:19:19.264Z,9.48
2023-01-05T19:24:25.594Z,9.45
2023-01-05T19:29:27.321Z,9.55
2023-01-05T19:34:29.086Z,9.53
2023-01-05T19:39:32.085Z,9.60
2023-01-05T19:44:33.807Z,9.65
2023-01-05T19:49:35.554Z,9.68
2023-01-05T19:54:39.276Z,9.65
2023-01-05T19:59:41.030Z,9.65
2023-01-05T20:04:45.438Z,9.67
2023-01-05T20:09:48.840Z,9.65
2023-01-05T20:14:50.964Z,9.65
2023-01-05T20:19:52.735Z,9.69
2023-01-05T20:24:55.772Z,9.68
2023-01-05T20:29:57.431Z,9.58
2023-01-05T20:35:00.152Z,9.61
2023-01-05T20:40:04.503Z,9.54
2023-01-05T20:45:07.792Z,9.54
2023-01-05T20:50:09.597Z,9.59
2023-01-05T20:55:12.680Z,9.54
2023-01-05T21:00:16.567Z,9.61
2023-01-05T21:05:18.374Z,9.58
2023-01-05T21:10:21.510Z,9.42
2023-01-05T21:15:24.460Z,9.48
2023-01-05T21:20:27.655Z,9.58
2023-01-05T21:25:30.680Z,9.65
2023-01-05T21:30:52.392Z,9.56
2023-01-05T21:35:54.184Z,9.52
2023-01-05T21:41:03.969Z,9.43
2023-01-05T21:46:06.352Z,9.43
2023-01-05T21:51:28.130Z,9.50
2023-01-05T21:56:31.504Z,9.54
2023-01-05T22:01:33.274Z,9.53
2023-01-05T22:06:34.980Z,9.53
2023-01-05T22:11:38.028Z,9.48
2023-01-05T22:16:40.125Z,9.49
2023-01-05T22:21:42.054Z,9.63
2023-01-05T22:26:45.124Z,9.63
2023-01-05T22:31:47.082Z,9.59
2023-01-05T22:36:49.128Z,9.52
2023-01-05T22:41:52.158Z,9.50
2023-01-05T22:46:53.817Z,9.51
2023-01-05T22:51:55.496Z,9.52
2023-01-05T22:56:58.804Z,9.54
2023-01-05T23:02:00.523Z,9.57
2023-01-05T23:07:02.239Z,9.54
2023-01-05T23:12:05.532Z,9.60
2023-01-05T23:17:12.079Z,9.52
2023-01-05T23:22:13.755Z,9.62
2023-01-05T23:27:16.769Z,9.54
2023-01-05T23:32:18.419Z,9.45
2023-01-05T23:37:20.211Z,9.50
2023-01-05T23:42:41.813Z,9.56
2023-01-05T23:47:43.678Z,9.57
2023-01-05T23:52:45.426Z,9.53
2023-01-05T23:57:48.461Z,9.53
